Sunday, November 19, 2017, 2:52 AM GMT
Back to Local

CYHU, Saint Hubert Airport

Location: , , Canada Lat: 45.517
Local Time: 2:52 AM GMT ( 2:52 GMT) Lon: -73.417
Time Zone: GMT Elev: 88 ft

Show me the last for .
Show Coded

Time T Td Feel RH Dir Speed Gust Alt SLP Vis Weather Sky Remarks
2017-11-19 02:41 30 28 25 92 20° 5 - 29.40 29.41 5 -FZRA BR BKN040 OVC050 Pressure falling rapidly
2017-11-19 02:36 30 27 24 86 10° 6 - 29.41 29.41 5 -FZRA -SN OVC038 None
2017-11-19 02:35 30 27 24 86 10° 6 - 29.41 29.41 6 -FZRA -SN OVC038 None
2017-11-19 02:32 30 27 25 86 20° 5 - 29.41 29.42 7 -SN BKN036 OVC044 None
2017-11-19 02:00 30 25 23 80 40° 8 - 29.43 29.44 9 -SN OVC036 Pressure falling rapidly
2017-11-19 01:52 30 25 23 80 30° 7 - 29.44 29.45 9 -SN OVC036 Pressure falling rapidly
2017-11-19 01:00 30 25 23 80 10° 8 - 29.48 29.49 9 OVC040 None
2017-11-19 00:00 30 25 22 80 20° 9 - 29.50 29.51 9 OVC042 None
2017-11-18 23:00 32 23 25 68 30° 8 - 29.53 29.54 9 OVC050 None
2017-11-18 22:38 32 23 25 68 20° 8 - 29.53 29.54 9 OVC050 None
2017-11-18 22:24 32 23 26 68 20° 7 - 29.54 29.54 9 -SN OVC055 None
2017-11-18 22:00 32 23 24 68 20° 10 - 29.54 29.55 9 OVC060 Pressure falling rapidly
2017-11-18 21:00 32 23 24 68 10° 9 - 29.57 29.58 9 OVC070 None
2017-11-18 20:00 32 21 26 63 60° 6 - 29.57 29.58 9 OVC070 None
2017-11-18 19:00 32 23 23 68 40° 12 - 29.61 29.62 9 OVC070 None
2017-11-18 18:00 32 23 25 68 60° 8 - 29.67 29.68 9 BKN100 BKN120 BKN220 None
2017-11-18 17:00 30 21 21 68 40° 10 - 29.71 29.72 9 OVC110 Pressure falling rapidly
2017-11-18 16:00 30 19 23 63 30° 8 - 29.75 29.76 9 FEW100 SCT120 SCT140 None
2017-11-18 15:00 28 21 20 74 40° 8 - 29.78 29.79 9 FEW130 None
2017-11-18 14:00 27 21 19 79 50° 7 - 29.83 29.84 9 BKN130 None
2017-11-18 13:00 25 19 17 79 80° 7 - 29.87 29.88 9 CLR None
2017-11-18 12:00 23 18 14 79 90° 8 - 29.91 29.92 9 OVC130 None
2017-11-18 11:00 21 18 16 85 110° 3 - 29.94 29.95 9 FEW180 BKN240 None
2017-11-18 10:00 23 19 15 85 100° 7 - 29.93 29.93 9 OVC120 Pressure falling rapidly
2017-11-18 09:00 19 16 - 85 140° 2 - 29.99 29.99 9 BKN140 BKN200 None
2017-11-18 08:00 19 16 - 85 Variable 2 - 29.99 30.00 9 SCT210 BKN230 None
2017-11-18 07:00 21 16 15 79 120° 5 - 30.00 30.01 9 FEW230 None
2017-11-18 06:00 23 16 - 73 140° 2 - 30.01 30.02 9 BKN210 BKN240 None
2017-11-18 05:00 25 16 - 68 - Calm - 30.03 30.04 9 BKN230 BKN250 None
2017-11-18 04:00 25 14 20 62 280° 3 - 30.05 30.05 9 BKN240 None
2017-11-18 03:00 27 14 20 58 290° 6 - 30.05 30.06 9 CLR None

Support USWX by starting your Amazon purchase here.